Time;durP1;ratioP1;P1;durP2;ratioP2;P2;SDS_P1;SDS_P2;PMS_P1;PMS_P2;Temp;Humidity;BMP_temperature;BMP_pressure;BME280_temperature;BME280_humidity;BME280_pressure;Samples;Min_cycle;Max_cycle;Signal;HPM_P1;HPM_P2
2023/08/23 00:00:47;;;;;;;18.67;10.38;;;;;;;;;;5033927;28;20057;-63
2023/08/23 00:03:14;;;;;;;31.23;18.75;;;;;;;;;;5015873;28;20064;-63
2023/08/23 00:05:40;;;;;;;8.52;3.92;;;;;;;;;;5045660;28;20124;-62
2023/08/23 00:08:07;;;;;;;5.18;1.70;;;;;;;;;;5033078;28;20322;-63
2023/08/23 00:10:35;;;;;;;4.03;1.50;;;;;;;;;;5047217;28;20157;-61
2023/08/23 00:13:05;;;;;;;3.63;1.52;;;;;;;;;;5048709;28;20130;-63
2023/08/23 00:15:32;;;;;;;5.32;1.58;;;;;;;;;;4999354;28;20064;-63
2023/08/23 00:17:58;;;;;;;3.65;1.52;;;;;;;;;;5021372;28;20159;-65
2023/08/23 00:20:25;;;;;;;10.68;6.63;;;;;;;;;;5035630;28;20115;-65
2023/08/23 00:22:54;;;;;;;19.08;10.32;;;;;;;;;;5039873;28;20075;-64
2023/08/23 00:25:20;;;;;;;11.70;5.82;;;;;;;;;;5014899;28;20049;-63
2023/08/23 00:27:48;;;;;;;8.82;4.13;;;;;;;;;;5038621;28;20077;-61
2023/08/23 00:30:15;;;;;;;5.68;2.45;;;;;;;;;;5040861;28;20140;-63
2023/08/23 00:32:42;;;;;;;5.35;1.35;;;;;;;;;;5038421;28;20064;-62
2023/08/23 00:35:09;;;;;;;3.38;1.48;;;;;;;;;;4991154;28;20057;-62
2023/08/23 00:37:36;;;;;;;5.10;1.40;;;;;;;;;;5036088;28;20080;-64
2023/08/23 00:40:02;;;;;;;3.75;1.58;;;;;;;;;;5040154;28;20061;-63
2023/08/23 00:42:29;;;;;;;2.97;1.40;;;;;;;;;;5040510;28;20149;-63
2023/08/23 00:44:57;;;;;;;4.53;1.80;;;;;;;;;;5011331;28;20134;-65
2023/08/23 00:47:24;;;;;;;4.43;1.60;;;;;;;;;;5033372;28;20053;-64
2023/08/23 00:49:52;;;;;;;3.58;1.60;;;;;;;;;;5042747;28;20068;-63
2023/08/23 00:52:18;;;;;;;8.38;1.88;;;;;;;;;;5039315;28;20079;-62
2023/08/23 00:54:46;;;;;;;3.58;1.70;;;;;;;;;;5006337;28;20052;-62
2023/08/23 00:57:14;;;;;;;3.83;1.65;;;;;;;;;;5031001;28;20057;-64
2023/08/23 00:59:40;;;;;;;3.85;1.55;;;;;;;;;;5041074;28;20044;-64
2023/08/23 01:02:09;;;;;;;4.45;1.60;;;;;;;;;;5039664;28;20053;-63
2023/08/23 01:04:36;;;;;;;4.65;1.60;;;;;;;;;;5027126;28;20052;-63
2023/08/23 01:07:11;;;;;;;3.00;1.65;;;;;;;;;;5036281;28;20084;-63
2023/08/23 01:09:47;;;;;;;3.28;1.45;;;;;;;;;;5041525;28;20053;-63
2023/08/23 01:12:21;;;;;;;2.92;1.40;;;;;;;;;;5018289;28;20076;-62
2023/08/23 01:14:54;;;;;;;3.38;1.63;;;;;;;;;;5021254;28;20107;-63
2023/08/23 01:17:23;;;;;;;3.83;1.58;;;;;;;;;;5011834;28;20068;-63
2023/08/23 01:19:51;;;;;;;5.85;1.75;;;;;;;;;;5020377;28;20057;-63
2023/08/23 01:22:19;;;;;;;3.65;1.50;;;;;;;;;;5019956;28;20053;-62
2023/08/23 01:24:48;;;;;;;3.65;1.58;;;;;;;;;;4999779;28;20056;-64
2023/08/23 01:27:16;;;;;;;3.70;1.45;;;;;;;;;;5017911;28;20103;-64
2023/08/23 01:29:44;;;;;;;3.80;1.50;;;;;;;;;;5022610;28;20056;-61
2023/08/23 01:32:24;;;;;;;3.70;1.70;;;;;;;;;;5054935;28;20063;-63
2023/08/23 01:34:56;;;;;;;3.72;1.75;;;;;;;;;;5008650;28;20079;-62
2023/08/23 01:37:23;;;;;;;3.63;1.92;;;;;;;;;;5017405;28;20080;-62
2023/08/23 01:39:53;;;;;;;6.28;3.15;;;;;;;;;;5024574;28;20076;-63
2023/08/23 01:42:21;;;;;;;10.57;6.13;;;;;;;;;;5038618;28;20055;-64
2023/08/23 01:44:50;;;;;;;31.20;16.77;;;;;;;;;;5032629;28;20067;-62
2023/08/23 01:47:17;;;;;;;10.63;5.32;;;;;;;;;;5034874;28;20125;-61
2023/08/23 01:49:44;;;;;;;6.38;2.42;;;;;;;;;;5037523;28;20048;-63
2023/08/23 01:52:10;;;;;;;7.13;2.30;;;;;;;;;;5039043;28;20056;-62
2023/08/23 01:54:38;;;;;;;4.63;1.88;;;;;;;;;;5031844;28;20154;-62
2023/08/23 01:57:07;;;;;;;2.87;1.67;;;;;;;;;;5017563;28;20080;-64
2023/08/23 01:59:34;;;;;;;6.15;1.98;;;;;;;;;;5012742;28;20418;-63
2023/08/23 02:02:00;;;;;;;3.47;1.90;;;;;;;;;;5001058;28;20095;-64
2023/08/23 02:04:26;;;;;;;3.65;2.00;;;;;;;;;;5023193;28;20057;-62
2023/08/23 02:06:53;;;;;;;6.28;2.35;;;;;;;;;;5035468;28;20072;-61
2023/08/23 02:09:19;;;;;;;5.00;2.17;;;;;;;;;;5052796;28;20084;-62
2023/08/23 02:11:46;;;;;;;4.43;1.90;;;;;;;;;;4999633;28;20057;-63
2023/08/23 02:14:14;;;;;;;2.55;1.77;;;;;;;;;;5017912;28;20079;-63
2023/08/23 02:16:41;;;;;;;6.38;2.22;;;;;;;;;;5018934;28;20056;-63
2023/08/23 02:19:08;;;;;;;5.35;2.30;;;;;;;;;;5007459;28;20062;-64
2023/08/23 02:21:38;;;;;;;5.72;2.40;;;;;;;;;;4996717;28;20089;-64
2023/08/23 02:24:07;;;;;;;5.80;2.15;;;;;;;;;;5040246;28;20134;-62
2023/08/23 02:26:36;;;;;;;4.38;1.90;;;;;;;;;;5041322;28;20053;-62
2023/08/23 02:29:03;;;;;;;4.32;2.22;;;;;;;;;;5038140;28;20056;-61
2023/08/23 02:31:31;;;;;;;4.32;2.10;;;;;;;;;;5026349;28;20080;-62
2023/08/23 02:33:58;;;;;;;4.82;2.08;;;;;;;;;;5051580;28;20063;-63
2023/08/23 02:36:25;;;;;;;4.45;2.00;;;;;;;;;;5037454;28;20060;-63
2023/08/23 02:38:51;;;;;;;7.53;2.20;;;;;;;;;;5039024;28;20088;-62
2023/08/23 02:41:18;;;;;;;6.07;2.67;;;;;;;;;;5034688;28;20056;-62
2023/08/23 02:43:45;;;;;;;4.18;1.83;;;;;;;;;;5029495;28;20076;-63
2023/08/23 02:46:12;;;;;;;5.80;2.25;;;;;;;;;;5054080;28;20083;-62
2023/08/23 02:48:40;;;;;;;4.18;2.00;;;;;;;;;;5040582;28;20056;-61
2023/08/23 02:51:07;;;;;;;6.22;2.13;;;;;;;;;;5038596;28;20066;-64
2023/08/23 02:53:34;;;;;;;4.38;2.15;;;;;;;;;;5021515;28;20057;-64
2023/08/23 02:56:04;;;;;;;4.35;2.05;;;;;;;;;;5034229;28;20057;-62
2023/08/23 02:58:31;;;;;;;7.63;2.28;;;;;;;;;;5039047;28;20122;-61
2023/08/23 03:00:58;;;;;;;5.88;2.15;;;;;;;;;;5038211;28;20061;-63
2023/08/23 03:03:25;;;;;;;3.45;2.08;;;;;;;;;;4982268;28;20069;-63
2023/08/23 03:05:55;;;;;;;4.43;1.98;;;;;;;;;;4994586;28;20116;-65
2023/08/23 03:08:22;;;;;;;4.80;1.95;;;;;;;;;;4997253;28;20065;-65
2023/08/23 03:10:49;;;;;;;5.93;2.08;;;;;;;;;;5010897;28;20070;-65
2023/08/23 03:13:15;;;;;;;5.95;2.10;;;;;;;;;;5010317;28;20058;-64
2023/08/23 03:15:42;;;;;;;6.68;2.05;;;;;;;;;;4988978;28;20116;-62
2023/08/23 03:18:09;;;;;;;4.78;2.13;;;;;;;;;;5000352;28;20057;-62
2023/08/23 03:20:36;;;;;;;4.93;2.03;;;;;;;;;;4998361;28;20115;-62
2023/08/23 03:23:04;;;;;;;4.97;2.20;;;;;;;;;;4996389;28;20045;-62
2023/08/23 03:25:33;;;;;;;;;;;;;;;;;;4998651;28;20124;-61
2023/08/23 03:28:00;;;;;;;3.42;1.80;;;;;;;;;;5008789;28;19926;-62
2023/08/23 03:30:27;;;;;;;6.70;2.17;;;;;;;;;;4998828;28;20069;-62
2023/08/23 03:32:53;;;;;;;4.93;2.25;;;;;;;;;;4984966;28;20081;-63
2023/08/23 03:35:20;;;;;;;5.82;1.95;;;;;;;;;;4997709;28;20069;-63
2023/08/23 03:37:47;;;;;;;5.72;2.05;;;;;;;;;;4990328;28;20128;-63
2023/08/23 03:40:15;;;;;;;6.38;2.15;;;;;;;;;;4997341;28;20112;-62
2023/08/23 03:42:42;;;;;;;5.78;2.05;;;;;;;;;;4992845;28;20054;-63
2023/08/23 03:45:09;;;;;;;5.70;2.20;;;;;;;;;;4997855;28;20065;-64
2023/08/23 03:47:38;;;;;;;5.03;1.80;;;;;;;;;;5017781;28;20092;-63
2023/08/23 03:50:05;;;;;;;6.45;2.13;;;;;;;;;;5014369;28;20138;-61
2023/08/23 03:52:32;;;;;;;4.65;2.22;;;;;;;;;;4999860;28;20087;-61
2023/08/23 03:54:59;;;;;;;5.20;2.35;;;;;;;;;;5002633;28;20056;-64
2023/08/23 03:57:28;;;;;;;6.43;2.20;;;;;;;;;;5017718;28;20077;-63
2023/08/23 03:59:54;;;;;;;4.63;2.33;;;;;;;;;;4993785;28;20093;-63
2023/08/23 04:02:21;;;;;;;5.95;2.30;;;;;;;;;;5026939;28;20049;-64
2023/08/23 04:04:48;;;;;;;5.55;2.47;;;;;;;;;;5040480;28;20063;-62
2023/08/23 04:07:18;;;;;;;5.20;2.30;;;;;;;;;;5039230;28;20077;-62
2023/08/23 04:09:45;;;;;;;6.65;2.25;;;;;;;;;;5020634;28;20151;-61
2023/08/23 04:12:12;;;;;;;5.32;2.35;;;;;;;;;;5038852;28;20056;-64
2023/08/23 04:14:40;;;;;;;6.22;2.50;;;;;;;;;;5040372;28;20049;-62
2023/08/23 04:17:07;;;;;;;5.03;2.20;;;;;;;;;;5043909;28;20056;-64
2023/08/23 04:19:37;;;;;;;4.72;2.35;;;;;;;;;;5039898;28;20053;-63
2023/08/23 04:22:05;;;;;;;6.13;2.20;;;;;;;;;;5037528;28;20068;-62
2023/08/23 04:24:32;;;;;;;5.95;2.53;;;;;;;;;;5058664;28;20067;-61
2023/08/23 04:26:58;;;;;;;6.65;2.42;;;;;;;;;;5041029;28;20084;-63
2023/08/23 04:29:25;;;;;;;7.32;2.72;;;;;;;;;;5041077;28;20072;-64
2023/08/23 04:31:54;;;;;;;6.35;2.47;;;;;;;;;;5037797;28;20056;-63
2023/08/23 04:34:21;;;;;;;;;;;;;;;;;;5051456;28;20052;-62
2023/08/23 04:36:48;;;;;;;7.05;3.10;;;;;;;;;;5041367;28;19975;-64
2023/08/23 04:39:15;;;;;;;13.77;5.82;;;;;;;;;;5039510;28;20053;-64
2023/08/23 04:41:55;;;;;;;30.95;16.15;;;;;;;;;;5033500;28;20092;-62
2023/08/23 04:44:23;;;;;;;17.05;8.85;;;;;;;;;;5055286;28;20061;-62
2023/08/23 04:46:53;;;;;;;6.63;2.75;;;;;;;;;;5036835;28;20076;-64
2023/08/23 04:49:22;;;;;;;6.78;2.92;;;;;;;;;;5041641;28;20059;-62
2023/08/23 04:51:48;;;;;;;7.68;2.47;;;;;;;;;;5023914;28;20136;-64
2023/08/23 04:54:18;;;;;;;5.78;2.72;;;;;;;;;;5038771;28;20061;-62
2023/08/23 04:56:46;;;;;;;5.78;2.50;;;;;;;;;;5038037;28;20053;-63
2023/08/23 04:59:13;;;;;;;31.17;14.93;;;;;;;;;;5052853;28;20049;-62
2023/08/23 05:01:40;;;;;;;12.00;5.10;;;;;;;;;;4999984;28;20062;-63
2023/08/23 05:04:08;;;;;;;7.88;3.97;;;;;;;;;;5032951;28;20084;-63
2023/08/23 05:06:35;;;;;;;8.38;4.55;;;;;;;;;;5041023;28;20144;-63
2023/08/23 05:09:04;;;;;;;10.15;3.97;;;;;;;;;;5039491;28;20064;-62
2023/08/23 05:11:31;;;;;;;7.57;3.13;;;;;;;;;;5025953;28;20053;-64
2023/08/23 05:13:58;;;;;;;7.63;3.42;;;;;;;;;;5029136;28;20053;-63
2023/08/23 05:16:27;;;;;;;7.10;3.00;;;;;;;;;;5026220;28;20057;-64
2023/08/23 05:18:54;;;;;;;5.97;2.75;;;;;;;;;;5043148;28;20052;-63
2023/08/23 05:21:22;;;;;;;6.38;3.17;;;;;;;;;;5020469;28;20100;-62
2023/08/23 05:23:50;;;;;;;6.28;3.30;;;;;;;;;;5027934;28;20138;-63
2023/08/23 05:26:17;;;;;;;6.55;3.17;;;;;;;;;;5036459;28;20056;-62
2023/08/23 05:28:47;;;;;;;9.00;4.80;;;;;;;;;;5037966;28;20061;-62
2023/08/23 05:31:15;;;;;;;9.93;4.45;;;;;;;;;;5039813;28;20076;-63
2023/08/23 05:33:42;;;;;;;8.45;3.70;;;;;;;;;;5027399;28;20115;-65
2023/08/23 05:36:09;;;;;;;6.93;3.60;;;;;;;;;;5041248;28;20136;-62
2023/08/23 05:38:41;;;;;;;10.45;3.90;;;;;;;;;;5044248;28;20064;-62
2023/08/23 05:41:08;;;;;;;7.13;3.42;;;;;;;;;;5044938;28;20099;-62
2023/08/23 05:43:35;;;;;;;7.82;3.58;;;;;;;;;;5016701;28;20064;-62
2023/08/23 05:46:03;;;;;;;10.25;4.43;;;;;;;;;;5033696;28;20068;-64
2023/08/23 05:48:34;;;;;;;9.65;4.00;;;;;;;;;;5038632;28;20052;-62
2023/08/23 05:51:02;;;;;;;7.55;3.80;;;;;;;;;;5039678;28;20059;-62
2023/08/23 05:53:28;;;;;;;10.25;4.75;;;;;;;;;;5011846;28;20045;-62
2023/08/23 05:55:57;;;;;;;9.02;4.53;;;;;;;;;;5035553;28;20180;-62
2023/08/23 05:58:27;;;;;;;7.68;4.10;;;;;;;;;;5034309;28;20059;-64
2023/08/23 06:00:55;;;;;;;8.43;4.15;;;;;;;;;;5022154;28;20072;-62
2023/08/23 06:03:22;;;;;;;9.55;4.55;;;;;;;;;;5009195;28;20111;-62
2023/08/23 06:05:54;;;;;;;8.18;4.15;;;;;;;;;;5017982;28;20123;-62
2023/08/23 06:08:22;;;;;;;9.98;5.13;;;;;;;;;;5018316;28;20049;-62
2023/08/23 06:10:49;;;;;;;11.77;5.13;;;;;;;;;;5034822;28;20057;-63
2023/08/23 06:13:17;;;;;;;11.52;5.60;;;;;;;;;;5030604;28;20167;-62
2023/08/23 06:15:44;;;;;;;13.38;6.00;;;;;;;;;;5033185;28;20064;-62
2023/08/23 06:18:11;;;;;;;16.50;8.65;;;;;;;;;;5038510;28;20057;-63
2023/08/23 06:20:43;;;;;;;18.98;10.45;;;;;;;;;;5041069;28;20131;-62
2023/08/23 06:23:10;;;;;;;20.10;10.55;;;;;;;;;;4993620;28;20044;-64
2023/08/23 06:25:42;;;;;;;19.42;10.38;;;;;;;;;;5051192;28;20098;-65
2023/08/23 06:28:20;;;;;;;23.63;12.43;;;;;;;;;;5040347;28;20071;-61
2023/08/23 06:30:50;;;;;;;28.63;16.30;;;;;;;;;;5039116;28;20056;-63
2023/08/23 06:33:20;;;;;;;30.30;16.58;;;;;;;;;;4959405;28;20071;-62
2023/08/23 06:35:49;;;;;;;28.85;14.23;;;;;;;;;;5050505;28;20063;-64
2023/08/23 06:38:16;;;;;;;25.45;13.85;;;;;;;;;;5041639;28;20057;-63
2023/08/23 06:40:43;;;;;;;21.30;11.02;;;;;;;;;;5041145;28;20063;-63
2023/08/23 06:43:19;;;;;;;21.98;12.73;;;;;;;;;;5008345;28;20052;-61
2023/08/23 06:45:47;;;;;;;26.10;12.05;;;;;;;;;;5032784;28;20064;-62
2023/08/23 06:48:14;;;;;;;21.05;9.77;;;;;;;;;;5040879;28;20053;-63
2023/08/23 06:50:41;;;;;;;24.45;10.18;;;;;;;;;;5037966;28;20151;-61
2023/08/23 06:53:08;;;;;;;18.58;10.50;;;;;;;;;;5026842;28;20064;-62
2023/08/23 06:55:42;;;;;;;17.67;9.20;;;;;;;;;;5022159;28;20052;-63
2023/08/23 06:58:09;;;;;;;21.25;9.10;;;;;;;;;;5012852;28;20057;-60
2023/08/23 07:00:37;;;;;;;24.83;11.48;;;;;;;;;;5017717;28;20160;-65
2023/08/23 07:03:05;;;;;;;18.88;10.63;;;;;;;;;;5021504;28;20056;-63
2023/08/23 07:05:39;;;;;;;;;;;;;;;;;;5019718;28;20110;-64
2023/08/23 07:08:07;;;;;;;21.08;11.10;;;;;;;;;;5016828;28;20221;-62
2023/08/23 07:10:33;;;;;;;14.48;7.45;;;;;;;;;;5033186;28;20068;-63
2023/08/23 07:13:00;;;;;;;13.60;7.78;;;;;;;;;;5022124;28;20059;-62
2023/08/23 07:15:27;;;;;;;15.82;7.10;;;;;;;;;;5045103;28;20064;-63
2023/08/23 07:17:54;;;;;;;18.00;7.38;;;;;;;;;;5035412;28;20257;-62
2023/08/23 07:20:23;;;;;;;17.58;7.28;;;;;;;;;;5055158;28;20056;-62
2023/08/23 07:22:50;;;;;;;19.90;8.20;;;;;;;;;;5010758;28;20057;-64
2023/08/23 07:25:17;;;;;;;17.95;7.70;;;;;;;;;;5028074;28;20065;-63
2023/08/23 07:27:44;;;;;;;19.98;8.70;;;;;;;;;;5018372;28;20064;-62
2023/08/23 07:30:12;;;;;;;19.42;7.82;;;;;;;;;;5043420;28;20099;-62
2023/08/23 07:32:41;;;;;;;16.52;7.25;;;;;;;;;;5024486;28;20083;-64
2023/08/23 07:35:12;;;;;;;18.30;6.75;;;;;;;;;;5024243;28;20140;-62
2023/08/23 07:37:43;;;;;;;17.08;6.30;;;;;;;;;;5018974;28;20061;-63
2023/08/23 07:40:12;;;;;;;13.00;6.80;;;;;;;;;;5022511;28;20130;-62
2023/08/23 07:42:39;;;;;;;14.85;6.75;;;;;;;;;;5016746;28;20112;-62
2023/08/23 07:45:07;;;;;;;13.73;6.82;;;;;;;;;;5044691;28;20049;-62
2023/08/23 07:47:34;;;;;;;15.35;6.38;;;;;;;;;;5043314;28;20048;-62
2023/08/23 07:50:03;;;;;;;19.08;6.13;;;;;;;;;;5038654;28;20052;-62
2023/08/23 07:52:29;;;;;;;;;;;;;;;;;;5024947;28;20060;-63
2023/08/23 07:54:58;;;;;;;13.50;5.13;;;;;;;;;;5042765;28;19929;-63
2023/08/23 07:57:24;;;;;;;11.57;6.03;;;;;;;;;;5056960;28;20084;-62
2023/08/23 07:59:52;;;;;;;14.55;6.38;;;;;;;;;;5035305;28;20064;-61
2023/08/23 08:02:19;;;;;;;10.98;5.57;;;;;;;;;;5019954;28;20061;-61
2023/08/23 08:04:47;;;;;;;16.25;5.10;;;;;;;;;;5041121;28;20048;-61
2023/08/23 08:07:13;;;;;;;11.23;4.90;;;;;;;;;;5040745;28;20056;-66
2023/08/23 08:09:41;;;;;;;12.70;5.18;;;;;;;;;;5039691;28;20392;-63
2023/08/23 08:12:09;;;;;;;10.95;5.22;;;;;;;;;;5030620;28;20128;-61
2023/08/23 08:14:36;;;;;;;16.35;5.43;;;;;;;;;;5054478;28;20099;-62
2023/08/23 08:17:03;;;;;;;11.63;5.07;;;;;;;;;;5038992;28;20118;-62
2023/08/23 08:19:30;;;;;;;12.15;5.53;;;;;;;;;;5046144;28;20048;-63
2023/08/23 08:21:57;;;;;;;13.10;4.68;;;;;;;;;;5036056;28;20118;-63
2023/08/23 08:24:24;;;;;;;10.13;4.55;;;;;;;;;;5040077;28;20084;-61
2023/08/23 08:26:51;;;;;;;9.48;3.25;;;;;;;;;;5040027;28;20219;-63
2023/08/23 08:29:19;;;;;;;14.02;4.13;;;;;;;;;;5041180;28;20088;-63
2023/08/23 08:31:49;;;;;;;10.68;3.58;;;;;;;;;;5032898;28;20067;-63
2023/08/23 08:34:19;;;;;;;9.27;3.95;;;;;;;;;;5037610;28;20088;-63
2023/08/23 08:36:46;;;;;;;9.90;4.22;;;;;;;;;;5042804;28;20056;-64
2023/08/23 08:39:15;;;;;;;13.07;4.43;;;;;;;;;;5044333;28;20059;-63
2023/08/23 08:41:44;;;;;;;11.30;4.15;;;;;;;;;;5030580;28;20060;-64
2023/08/23 08:44:12;;;;;;;10.45;4.22;;;;;;;;;;5036061;28;20060;-63
2023/08/23 08:46:41;;;;;;;9.77;4.18;;;;;;;;;;5054516;28;20049;-62
2023/08/23 08:49:07;;;;;;;;;;;;;;;;;;5039287;28;20056;-65
2023/08/23 08:51:37;;;;;;;6.78;3.50;;;;;;;;;;5038511;28;19921;-66
2023/08/23 08:54:06;;;;;;;9.95;3.65;;;;;;;;;;5032864;28;20152;-61
2023/08/23 08:56:38;;;;;;;7.13;3.38;;;;;;;;;;5050172;28;20061;-62
2023/08/23 08:59:08;;;;;;;10.45;3.38;;;;;;;;;;5056885;28;20067;-64
2023/08/23 09:01:42;;;;;;;8.20;3.75;;;;;;;;;;5026976;28;20053;-65
2023/08/23 09:04:08;;;;;;;10.25;3.70;;;;;;;;;;5028297;28;20065;-64
2023/08/23 09:06:37;;;;;;;6.55;3.10;;;;;;;;;;5041000;28;20141;-66
2023/08/23 09:09:04;;;;;;;8.05;3.20;;;;;;;;;;5041407;28;20083;-63
2023/08/23 09:11:31;;;;;;;9.73;3.85;;;;;;;;;;5042400;28;20175;-61
2023/08/23 09:14:14;;;;;;;7.28;3.42;;;;;;;;;;5032671;28;20132;-62
2023/08/23 09:16:43;;;;;;;10.40;3.47;;;;;;;;;;5039909;28;20067;-63
2023/08/23 09:19:10;;;;;;;;;;;;;;;;;;5041059;28;20053;-62
2023/08/23 09:21:42;;;;;;;5.20;2.55;;;;;;;;;;5036697;28;19929;-66
2023/08/23 09:24:11;;;;;;;6.13;2.42;;;;;;;;;;5029492;28;20099;-61
2023/08/23 09:26:38;;;;;;;7.75;2.70;;;;;;;;;;5056421;28;20082;-62
2023/08/23 09:29:05;;;;;;;7.95;3.22;;;;;;;;;;5042042;28;20143;-62
2023/08/23 09:31:35;;;;;;;8.27;2.70;;;;;;;;;;5040264;28;20053;-61
2023/08/23 09:34:04;;;;;;;7.05;2.80;;;;;;;;;;5021466;28;20049;-62
2023/08/23 09:36:39;;;;;;;5.43;2.53;;;;;;;;;;5038098;28;20121;-62
2023/08/23 09:39:09;;;;;;;4.82;2.20;;;;;;;;;;5039430;28;20102;-63
2023/08/23 09:41:38;;;;;;;6.95;1.92;;;;;;;;;;5041899;28;20135;-62
2023/08/23 09:44:06;;;;;;;6.65;2.55;;;;;;;;;;5004817;28;20049;-62
2023/08/23 09:46:34;;;;;;;5.25;1.98;;;;;;;;;;5034457;28;20064;-61
2023/08/23 09:49:04;;;;;;;5.45;2.33;;;;;;;;;;5022076;28;20127;-63
2023/08/23 09:51:33;;;;;;;5.00;2.40;;;;;;;;;;5018546;28;20068;-63
2023/08/23 09:54:07;;;;;;;5.25;2.30;;;;;;;;;;5018069;28;20067;-62
2023/08/23 09:56:38;;;;;;;4.75;2.45;;;;;;;;;;5040094;28;20057;-62
2023/08/23 09:59:05;;;;;;;7.90;2.53;;;;;;;;;;5038463;28;20147;-63
2023/08/23 10:01:32;;;;;;;7.25;2.40;;;;;;;;;;5040132;28;20068;-63
2023/08/23 10:03:59;;;;;;;4.80;1.88;;;;;;;;;;5033774;28;20152;-64
2023/08/23 10:06:28;;;;;;;8.45;2.47;;;;;;;;;;5036623;28;20080;-63
2023/08/23 10:08:59;;;;;;;5.47;2.05;;;;;;;;;;5041818;28;20057;-61
2023/08/23 10:11:28;;;;;;;6.85;2.25;;;;;;;;;;5020331;28;20050;-60
2023/08/23 10:13:57;;;;;;;7.10;2.25;;;;;;;;;;4967600;28;20047;-61
2023/08/23 10:16:27;;;;;;;3.10;1.60;;;;;;;;;;5040560;28;20064;-62
2023/08/23 10:18:55;;;;;;;5.75;1.60;;;;;;;;;;5041541;28;20159;-63
2023/08/23 10:21:22;;;;;;;4.03;1.67;;;;;;;;;;5040807;28;20064;-66
2023/08/23 10:23:52;;;;;;;5.40;1.70;;;;;;;;;;5027358;28;20041;-59
2023/08/23 10:26:20;;;;;;;5.70;2.40;;;;;;;;;;5038943;28;20154;-62
2023/08/23 10:28:48;;;;;;;6.80;2.45;;;;;;;;;;5039373;28;20063;-60
2023/08/23 10:31:15;;;;;;;5.97;2.13;;;;;;;;;;5040458;28;20057;-61
2023/08/23 10:33:44;;;;;;;5.47;1.88;;;;;;;;;;5033003;28;20065;-63
2023/08/23 10:36:22;;;;;;;5.18;1.70;;;;;;;;;;5056443;28;20114;-62
2023/08/23 10:38:54;;;;;;;5.75;1.80;;;;;;;;;;5037567;28;20061;-62
2023/08/23 10:41:21;;;;;;;6.55;1.63;;;;;;;;;;5038821;28;20138;-60
2023/08/23 10:43:48;;;;;;;7.40;2.20;;;;;;;;;;5041340;28;20170;-63
2023/08/23 10:46:19;;;;;;;4.40;1.77;;;;;;;;;;5058176;28;20052;-61
2023/08/23 10:48:46;;;;;;;3.75;1.50;;;;;;;;;;5057954;28;20138;-62
2023/08/23 10:51:15;;;;;;;4.22;1.52;;;;;;;;;;5058402;28;20063;-61
2023/08/23 10:53:43;;;;;;;3.88;1.27;;;;;;;;;;5032864;28;20063;-61
2023/08/23 10:56:11;;;;;;;5.95;1.80;;;;;;;;;;5038209;28;20056;-60
2023/08/23 10:58:38;;;;;;;6.72;1.67;;;;;;;;;;5041448;28;20072;-60
2023/08/23 11:01:05;;;;;;;3.33;1.33;;;;;;;;;;5036402;28;20052;-61
2023/08/23 11:03:34;;;;;;;4.72;1.40;;;;;;;;;;5024792;28;20053;-62
2023/08/23 11:06:01;;;;;;;5.55;1.58;;;;;;;;;;5030050;28;20083;-61
2023/08/23 11:08:28;;;;;;;4.70;1.60;;;;;;;;;;5055206;28;20084;-61
2023/08/23 11:10:55;;;;;;;6.57;1.58;;;;;;;;;;5038275;28;20160;-61
2023/08/23 11:13:23;;;;;;;5.03;1.83;;;;;;;;;;5033571;28;20056;-64
2023/08/23 11:15:50;;;;;;;9.60;1.98;;;;;;;;;;5034090;28;20061;-62
2023/08/23 11:18:18;;;;;;;6.15;1.60;;;;;;;;;;5039396;28;20108;-61
2023/08/23 11:20:52;;;;;;;4.32;1.92;;;;;;;;;;5037302;28;20065;-63
2023/08/23 11:23:20;;;;;;;3.33;1.50;;;;;;;;;;4995647;28;20063;-63
2023/08/23 11:25:53;;;;;;;4.00;1.23;;;;;;;;;;5032152;28;20085;-61
2023/08/23 11:28:20;;;;;;;3.97;1.52;;;;;;;;;;5038495;28;20065;-62
2023/08/23 11:30:53;;;;;;;3.42;1.30;;;;;;;;;;5036756;28;20072;-63
2023/08/23 11:33:26;;;;;;;3.80;1.25;;;;;;;;;;4997899;28;20053;-62
2023/08/23 11:35:55;;;;;;;;;;;;;;;;;;5035044;28;20144;-63
2023/08/23 11:38:28;;;;;;;8.55;1.40;;;;;;;;;;5039935;28;19931;-62
2023/08/23 11:40:55;;;;;;;7.70;1.88;;;;;;;;;;5035989;28;20057;-62
2023/08/23 11:43:24;;;;;;;5.55;1.52;;;;;;;;;;5027881;28;20063;-63
2023/08/23 11:45:52;;;;;;;7.55;1.48;;;;;;;;;;5036177;28;20041;-62
2023/08/23 11:48:21;;;;;;;2.88;1.30;;;;;;;;;;5037415;28;20061;-64
2023/08/23 11:50:48;;;;;;;6.03;1.88;;;;;;;;;;5042167;28;20053;-63
2023/08/23 11:53:15;;;;;;;2.45;1.30;;;;;;;;;;5026044;28;20048;-63
2023/08/23 11:55:47;;;;;;;7.90;1.20;;;;;;;;;;5033587;28;20041;-62
2023/08/23 11:58:17;;;;;;;3.85;1.13;;;;;;;;;;5040848;28;20045;-62
2023/08/23 12:00:48;;;;;;;3.25;1.10;;;;;;;;;;5040698;28;20052;-61
2023/08/23 12:03:17;;;;;;;5.32;1.58;;;;;;;;;;5036292;28;20049;-64
2023/08/23 12:05:49;;;;;;;4.75;1.27;;;;;;;;;;5036014;28;20056;-63
2023/08/23 12:08:20;;;;;;;3.92;1.40;;;;;;;;;;5039347;28;20163;-62
2023/08/23 12:10:47;;;;;;;1.90;1.02;;;;;;;;;;5058340;28;20053;-63
2023/08/23 12:13:14;;;;;;;3.03;1.20;;;;;;;;;;5037616;28;20056;-62
2023/08/23 12:15:44;;;;;;;4.87;1.37;;;;;;;;;;5033934;28;20057;-63
2023/08/23 12:18:12;;;;;;;3.67;1.30;;;;;;;;;;5025545;28;20045;-62
2023/08/23 12:20:54;;;;;;;;;;;;;;;;;;5037310;28;20154;-63
2023/08/23 12:23:22;;;;;;;2.70;1.40;;;;;;;;;;5024943;28;19948;-63
2023/08/23 12:25:49;;;;;;;;;;;;;;;;;;5036509;28;20158;-60
2023/08/23 12:28:16;;;;;;;2.80;1.00;;;;;;;;;;5042074;28;19952;-61
2023/08/23 12:30:42;;;;;;;4.80;1.40;;;;;;;;;;5041890;28;20052;-63
2023/08/23 12:33:09;;;;;;;2.67;1.15;;;;;;;;;;5020408;28;20056;-62
2023/08/23 12:35:45;;;;;;;4.45;1.33;;;;;;;;;;5045728;28;20076;-63
2023/08/23 12:38:15;;;;;;;4.72;1.17;;;;;;;;;;5040889;28;20128;-63
2023/08/23 12:40:43;;;;;;;4.47;1.80;;;;;;;;;;5041831;28;20052;-64
2023/08/23 12:43:13;;;;;;;3.70;1.25;;;;;;;;;;5025900;28;20053;-63
2023/08/23 12:45:47;;;;;;;5.38;1.40;;;;;;;;;;5030338;28;20126;-63
2023/08/23 12:48:15;;;;;;;5.70;1.23;;;;;;;;;;5039593;28;20068;-64
2023/08/23 12:50:42;;;;;;;7.72;1.35;;;;;;;;;;5043860;28;20063;-62
2023/08/23 12:53:12;;;;;;;2.78;1.15;;;;;;;;;;5039583;28;20056;-62
2023/08/23 12:55:41;;;;;;;2.63;1.23;;;;;;;;;;5036495;28;20048;-62
2023/08/23 12:58:11;;;;;;;3.67;1.30;;;;;;;;;;5042907;28;20137;-63
2023/08/23 13:00:42;;;;;;;4.72;1.70;;;;;;;;;;5030759;28;20350;-61
2023/08/23 13:03:09;;;;;;;2.13;1.23;;;;;;;;;;5007252;28;20076;-61
2023/08/23 13:05:42;;;;;;;7.45;1.60;;;;;;;;;;5038655;28;20368;-62
2023/08/23 13:08:12;;;;;;;6.38;1.52;;;;;;;;;;5041839;28;20084;-62
2023/08/23 13:10:43;;;;;;;2.90;1.38;;;;;;;;;;5041920;28;20072;-63
2023/08/23 13:13:30;;;;;;;2.78;1.45;;;;;;;;;;4954955;28;20081;-63
2023/08/23 13:16:02;;;;;;;3.88;1.52;;;;;;;;;;4970315;28;20057;-62
2023/08/23 13:18:31;;;;;;;6.30;1.50;;;;;;;;;;5000554;28;20116;-62
2023/08/23 13:20:58;;;;;;;3.38;1.45;;;;;;;;;;4986426;28;20062;-62
2023/08/23 13:23:25;;;;;;;6.13;1.58;;;;;;;;;;5052523;28;20068;-62
2023/08/23 13:26:11;;;;;;;8.30;1.83;;;;;;;;;;5035846;28;20060;-64
2023/08/23 13:28:42;;;;;;;4.40;1.50;;;;;;;;;;5044355;28;20065;-63
2023/08/23 13:31:12;;;;;;;6.30;1.80;;;;;;;;;;5038509;28;20128;-62
2023/08/23 13:33:46;;;;;;;5.68;1.70;;;;;;;;;;4976430;28;20052;-64
2023/08/23 13:36:13;;;;;;;3.90;1.67;;;;;;;;;;5036817;28;20053;-63
2023/08/23 13:38:45;;;;;;;5.85;2.22;;;;;;;;;;5042122;28;20064;-62
2023/08/23 13:41:14;;;;;;;4.40;1.83;;;;;;;;;;5042723;28;20094;-63
2023/08/23 13:43:45;;;;;;;4.68;2.15;;;;;;;;;;5016075;28;20052;-63
2023/08/23 13:46:12;;;;;;;5.05;1.92;;;;;;;;;;5040870;28;20064;-63
2023/08/23 13:48:39;;;;;;;6.70;2.22;;;;;;;;;;5040298;28;20056;-64
2023/08/23 13:51:09;;;;;;;8.65;2.58;;;;;;;;;;5040259;28;20120;-63
2023/08/23 13:53:42;;;;;;;8.68;2.45;;;;;;;;;;4999401;28;20056;-62
2023/08/23 13:56:10;;;;;;;5.28;2.60;;;;;;;;;;5041053;28;20067;-63
2023/08/23 13:58:36;;;;;;;7.32;2.65;;;;;;;;;;5039848;28;20066;-64
2023/08/23 14:01:07;;;;;;;5.43;2.15;;;;;;;;;;5040248;28;20141;-63
2023/08/23 14:03:37;;;;;;;6.45;2.20;;;;;;;;;;5011802;28;20063;-64
2023/08/23 14:06:05;;;;;;;6.72;2.53;;;;;;;;;;5040433;28;21224;-63
2023/08/23 14:08:32;;;;;;;7.85;2.70;;;;;;;;;;5037746;28;20056;-64
2023/08/23 14:10:59;;;;;;;5.80;2.33;;;;;;;;;;5038725;28;20164;-63
2023/08/23 14:13:25;;;;;;;5.35;2.38;;;;;;;;;;4992780;28;20160;-63
2023/08/23 14:15:54;;;;;;;6.68;2.65;;;;;;;;;;5025939;28;20075;-63
2023/08/23 14:18:23;;;;;;;8.85;2.55;;;;;;;;;;5040767;28;20134;-64
2023/08/23 14:20:49;;;;;;;6.10;2.40;;;;;;;;;;5041034;28;20053;-63
2023/08/23 14:23:16;;;;;;;5.07;2.17;;;;;;;;;;5027461;28;20060;-62
2023/08/23 14:25:43;;;;;;;4.00;2.00;;;;;;;;;;5025936;28;20175;-64
2023/08/23 14:28:12;;;;;;;3.97;1.88;;;;;;;;;;5020386;28;20076;-63
2023/08/23 14:30:42;;;;;;;6.35;2.28;;;;;;;;;;5019260;28;20087;-61
2023/08/23 14:33:09;;;;;;;9.52;2.53;;;;;;;;;;5009201;28;20053;-62
2023/08/23 14:35:41;;;;;;;4.78;2.30;;;;;;;;;;5037887;28;20136;-65
2023/08/23 14:38:08;;;;;;;9.52;3.08;;;;;;;;;;5023699;28;20093;-61
2023/08/23 14:40:34;;;;;;;6.28;2.55;;;;;;;;;;5023879;28;20062;-62
2023/08/23 14:43:01;;;;;;;8.57;2.88;;;;;;;;;;5001561;28;21734;-65
2023/08/23 14:45:28;;;;;;;8.53;3.13;;;;;;;;;;5043919;28;20123;-62
2023/08/23 14:47:55;;;;;;;7.23;2.63;;;;;;;;;;5039060;28;20037;-61
2023/08/23 14:50:23;;;;;;;8.40;3.17;;;;;;;;;;5042581;28;20064;-64